• Join FlightAware (Why Join?)
  • Login
  • US Flag 
01:38AM EDT


 

Airport Tracker/Info


-or-


 

Live Flight TrackerFlight Track Log ✈ ELJ309 ✈ 24-Jun-2013 ✈ KDEN - KSHR

Flight Track Log - Related Links

Times and Time Zones

All times are in EDT time to prevent confusion due to time zone crossing. See the ELJ309 flight status page for this flight to view local times or setup timezone preferences in your user account.

Time Position Orientation Groundspeed Altitude Reporting Facility
EDT Latitude Longitude Course Direction KTS MPH feet Rate Location/Type
01:24PM 39.8500 -104.7333 285° West 182 209 6,400  Level Denver TRACON
01:25PM 39.8667 -104.8167 285° West 235 270 9,300 2,040 Climbing Denver TRACON
01:26PM 39.8978 -104.8753 305° West 231 266 10,400 1,260 Climbing Denver Center
01:27PM 39.9481 -104.9325 319° Northwest 242 278 11,800 1,980 Climbing Denver Center
01:28PM 40.0231 -104.9461 352° North 261 300 14,600 2,520 Climbing Denver Center
01:29PM 40.1006 -104.9258 11° North 293 337 17,100 2,400 Climbing Denver Center
01:30PM 40.1731 -104.8536 37° Northeast 304 350 19,600 1,920 Climbing Denver Center
01:31PM 40.2636 -104.8144 18° North 352 405 21,100 1,200 Climbing Denver Center
01:32PM 40.3672 -104.8067 North 374 430 22,200 1,380 Climbing Denver Center
01:33PM 40.4831 -104.8194 355° North 385 443 24,000 1,680 Climbing Denver Center
01:34PM 40.5789 -104.8314 355° North 366 421 25,700 1,500 Climbing Denver Center
01:35PM 40.6869 -104.8422 356° North 390 449 27,200 1,200 Climbing Denver Center
01:36PM 40.7956 -104.8547 355° North 389 448 28,200 1,020 Climbing Denver Center
01:37PM 40.9253 -104.9183 340° North 412 474 29,400 1,200 Climbing Denver Center
01:38PM 41.0300 -104.9692 340° North 420 483 30,700 1,380 Climbing Denver Center
01:39PM 41.1519 -105.0308 339° North 420 483 32,300 1,500 Climbing Denver Center
01:40PM 41.2556 -105.0803 340° North 416 479 33,800 780 Climbing Denver Center
01:41PM 41.3781 -105.1403 340° North 418 481 34,000 60 Climbing Denver Center
01:42PM 41.4925 -105.1972 340° North 447 514 34,000  Level Denver Center
01:43PM 41.6064 -105.2556 339° North 456 525 34,000  Level Denver Center
01:44PM 41.7400 -105.3192 340° North 455 524 34,000  Level Denver Center
01:45PM 41.8550 -105.3733 341° North 455 524 34,000  Level Denver Center
01:46PM 41.9889 -105.4378 340° North 458 527 34,000  Level Denver Center
01:47PM 42.1031 -105.4936 340° North 457 526 34,000  Level Denver Center
01:48PM 42.2381 -105.5575 341° North 458 527 34,000  Level Denver Center
01:49PM 42.3531 -105.6150 340° North 460 529 34,000  Level Denver Center
01:51PM 42.4686 -105.6703 341° North 459 528 34,000  Level Denver Center
01:52PM 42.6017 -105.7350 340° North 455 524 34,000  Level Denver Center
01:53PM 42.7197 -105.7908 341° North 463 533 34,000  Level Denver Center
01:54PM 42.8525 -105.8572 340° North 457 526 34,000  Level Denver Center
01:55PM 42.9658 -105.9136 340° North 453 521 34,000 -540 Level Denver Center
01:56PM 43.0992 -105.9794 340° North 454 522 33,000 -1,200 Descending Denver Center
01:57PM 43.2114 -106.0356 340° North 450 518 31,600 -1,500 Descending Denver Center
01:58PM 43.3381 -106.1000 340° North 438 504 29,900 -1,500 Descending Denver Center
01:59PM 43.4292 -106.1453 340° North 435 501 28,600 -1,560 Descending Denver Center
02:00PM 43.5558 -106.2089 340° North 435 501 26,700 -2,040 Descending Denver Center
02:01PM 43.6825 -106.2731 340° North 433 498 24,500 -2,040 Descending Denver Center
02:02PM 43.7892 -106.3272 340° North 429 494 22,600 -2,040 Descending Denver Center
02:03PM 43.8792 -106.3686 342° North 425 489 21,000 -2,040 Descending Salt Lake Center
02:04PM 43.9975 -106.3711 359° North 432 497 19,100 -2,160 Descending Salt Lake Center
02:05PM 44.1272 -106.3744 359° North 426 490 16,600 -2,160 Descending Salt Lake Center
02:06PM 44.2311 -106.3636 North 407 468 14,700 -2,040 Descending Salt Lake Center
02:07PM 44.3425 -106.4050 345° North 386 444 12,400 -2,280 Descending Salt Lake Center